createdAt,value
2019-02-16T00:00:48.255Z,4.23
2019-02-16T00:05:51.692Z,4.17
2019-02-16T00:10:55.114Z,4.21
2019-02-16T00:15:58.538Z,4.22
2019-02-16T00:21:04.224Z,4.16
2019-02-16T00:26:07.134Z,4.17
2019-02-16T00:31:10.546Z,4.27
2019-02-16T00:36:13.951Z,4.25
2019-02-16T00:41:17.360Z,4.22
2019-02-16T00:46:20.784Z,4.23
2019-02-16T00:51:24.211Z,4.13
2019-02-16T00:56:27.749Z,4.08
2019-02-16T01:01:31.194Z,4.06
2019-02-16T01:06:34.627Z,4.00
2019-02-16T01:11:38.023Z,4.00
2019-02-16T01:16:41.450Z,4.03
2019-02-16T01:21:44.922Z,3.96
2019-02-16T01:26:48.351Z,3.89
2019-02-16T01:31:51.824Z,3.72
2019-02-16T01:36:55.281Z,3.63
2019-02-16T01:41:58.745Z,3.61
2019-02-16T01:47:02.150Z,3.61
2019-02-16T01:52:05.597Z,3.56
2019-02-16T01:57:09.041Z,3.56
2019-02-16T02:02:12.492Z,3.51
2019-02-16T02:07:15.936Z,3.49
2019-02-16T02:12:19.611Z,3.47
2019-02-16T02:17:23.046Z,3.49
2019-02-16T02:22:26.506Z,3.49
2019-02-16T02:27:29.950Z,3.39
2019-02-16T02:32:33.387Z,3.36
2019-02-16T02:37:36.818Z,3.32
2019-02-16T02:42:40.291Z,3.27
2019-02-16T02:47:43.754Z,3.21
2019-02-16T02:52:47.208Z,3.12
2019-02-16T02:57:50.652Z,2.98
2019-02-16T03:02:54.119Z,3.08
2019-02-16T03:07:57.553Z,3.04
2019-02-16T03:13:00.992Z,2.94
2019-02-16T03:18:04.440Z,2.90
2019-02-16T03:23:11.210Z,2.90
2019-02-16T03:28:17.733Z,2.86
2019-02-16T03:33:27.194Z,2.88
2019-02-16T03:38:48.874Z,2.95
2019-02-16T03:43:52.331Z,2.92
2019-02-16T03:48:55.771Z,2.92
2019-02-16T03:53:59.247Z,2.91
2019-02-16T03:59:02.687Z,3.01
2019-02-16T04:04:06.150Z,2.91
2019-02-16T04:09:09.614Z,2.95
2019-02-16T04:14:13.066Z,3.06
2019-02-16T04:19:16.511Z,3.04
2019-02-16T04:24:19.951Z,3.00
2019-02-16T04:29:23.541Z,3.05
2019-02-16T04:34:26.939Z,2.97
2019-02-16T04:39:30.373Z,2.86
2019-02-16T04:44:33.785Z,2.87
2019-02-16T04:49:37.202Z,2.93
2019-02-16T04:54:40.637Z,2.95
2019-02-16T04:59:44.076Z,2.94
2019-02-16T05:04:47.488Z,2.88
2019-02-16T05:09:50.913Z,2.88
2019-02-16T05:14:54.340Z,2.72
2019-02-16T05:19:57.776Z,2.68
2019-02-16T05:25:01.227Z,2.78
2019-02-16T05:30:07.569Z,2.73
2019-02-16T05:35:11.005Z,2.72
2019-02-16T05:40:14.434Z,2.67
2019-02-16T05:45:17.844Z,2.64
2019-02-16T05:50:21.292Z,2.65
2019-02-16T05:55:24.715Z,2.52
2019-02-16T06:00:29.804Z,2.55
2019-02-16T06:05:33.218Z,2.55
2019-02-16T06:10:36.650Z,2.51
2019-02-16T06:15:40.065Z,2.61
2019-02-16T06:20:43.487Z,2.62
2019-02-16T06:25:47.211Z,2.65
2019-02-16T06:30:50.586Z,2.68
2019-02-16T06:35:55.647Z,2.69
2019-02-16T06:40:59.048Z,2.73
2019-02-16T06:46:02.487Z,2.64
2019-02-16T06:51:05.912Z,2.58
2019-02-16T06:56:10.987Z,2.52
2019-02-16T07:01:14.404Z,2.41
2019-02-16T07:06:17.818Z,2.49
2019-02-16T07:11:21.250Z,2.59
2019-02-16T07:16:32.293Z,2.49
2019-02-16T07:21:35.712Z,2.39
2019-02-16T07:26:39.140Z,2.40
2019-02-16T07:31:42.547Z,2.39
2019-02-16T07:36:45.967Z,2.43
2019-02-16T07:41:49.378Z,2.49
2019-02-16T07:46:54.425Z,2.59
2019-02-16T07:51:59.496Z,2.64
2019-02-16T07:57:20.736Z,2.56
2019-02-16T08:02:28.424Z,2.70
2019-02-16T08:07:50.971Z,2.86
2019-02-16T08:13:02.053Z,2.97
2019-02-16T08:18:12.853Z,3.07
2019-02-16T08:23:17.918Z,3.11
2019-02-16T08:28:22.967Z,3.11
2019-02-16T08:38:49.697Z,3.28
2019-02-16T08:44:09.737Z,3.55
2019-02-16T08:49:23.808Z,3.89
2019-02-16T08:54:28.889Z,4.24
2019-02-16T08:59:33.947Z,4.74
2019-02-16T09:10:08.199Z,6.27
2019-02-16T09:15:16.220Z,6.71
2019-02-16T09:20:26.856Z,7.71
2019-02-16T09:25:31.913Z,7.88
2019-02-16T09:30:36.992Z,8.48
2019-02-16T09:35:50.697Z,9.33
2019-02-16T09:46:31.318Z,10.69
2019-02-16T09:51:42.203Z,11.33
2019-02-16T09:56:47.264Z,11.78
2019-02-16T10:02:07.589Z,12.12
2019-02-16T10:07:27.697Z,12.69
2019-02-16T10:12:38.816Z,13.22
2019-02-16T10:17:49.411Z,13.77
2019-02-16T10:22:54.487Z,14.29
2019-02-16T10:27:59.547Z,14.68
2019-02-16T10:33:13.525Z,15.16
2019-02-16T10:38:34.787Z,15.63
2019-02-16T10:43:48.482Z,15.92
2019-02-16T10:48:58.968Z,16.26
2019-02-16T10:54:04.068Z,16.77
2019-02-16T10:59:09.133Z,16.95
2019-02-16T11:04:38.333Z,17.25
2019-02-16T11:09:42.007Z,17.46
2019-02-16T11:14:56.096Z,17.81
2019-02-16T11:20:16.265Z,17.78
2019-02-16T11:25:36.332Z,18.08
2019-02-16T11:30:41.389Z,18.35
2019-02-16T11:35:52.334Z,18.29
2019-02-16T11:41:06.133Z,18.42
2019-02-16T11:46:22.814Z,18.33
2019-02-16T11:51:27.900Z,18.48
2019-02-16T11:56:32.952Z,18.99
2019-02-16T12:01:54.229Z,19.03
2019-02-16T12:06:59.294Z,19.18
2019-02-16T12:12:07.333Z,19.26
2019-02-16T12:17:17.968Z,19.35
2019-02-16T12:22:28.995Z,19.28
2019-02-16T12:27:36.533Z,19.10
2019-02-16T12:32:53.563Z,19.20
2019-02-16T12:38:10.151Z,19.19
2019-02-16T12:43:24.350Z,19.27
2019-02-16T12:48:29.427Z,19.62
2019-02-16T12:53:50.750Z,19.49
2019-02-16T12:59:04.423Z,19.87
2019-02-16T13:04:15.344Z,20.20
2019-02-16T13:09:20.455Z,19.96
2019-02-16T13:14:41.727Z,20.05
2019-02-16T13:19:49.722Z,20.04
2019-02-16T13:24:57.556Z,20.11
2019-02-16T13:30:16.323Z,20.31
2019-02-16T13:35:24.328Z,20.08
2019-02-16T13:40:38.307Z,20.11
2019-02-16T13:45:59.633Z,20.15
2019-02-16T13:51:07.504Z,20.01
2019-02-16T13:56:29.051Z,19.92
2019-02-16T14:01:42.874Z,19.78
2019-02-16T14:06:50.341Z,19.53
2019-02-16T14:11:55.394Z,19.54
2019-02-16T14:17:00.513Z,19.18
2019-02-16T14:22:03.949Z,19.09
2019-02-16T14:27:07.380Z,18.92
2019-02-16T14:32:10.910Z,18.85
2019-02-16T14:37:18.453Z,18.73
2019-02-16T14:42:21.873Z,18.60
2019-02-16T14:47:25.301Z,18.24
2019-02-16T14:52:28.803Z,18.14
2019-02-16T14:57:32.234Z,17.93
2019-02-16T15:02:35.675Z,17.80
2019-02-16T15:07:39.140Z,17.72
2019-02-16T15:12:42.560Z,17.55
2019-02-16T15:17:46.005Z,17.20
2019-02-16T15:22:49.418Z,17.25
2019-02-16T15:27:52.857Z,17.14
2019-02-16T15:32:56.278Z,16.98
2019-02-16T15:37:59.709Z,16.87
2019-02-16T15:43:03.159Z,16.86
2019-02-16T15:48:06.576Z,16.78
2019-02-16T15:53:10.013Z,16.48
2019-02-16T15:58:13.481Z,16.25
2019-02-16T16:03:16.872Z,15.99
2019-02-16T16:13:51.590Z,15.46
2019-02-16T16:18:56.667Z,15.20
2019-02-16T16:24:19.915Z,14.92
2019-02-16T16:29:28.028Z,14.65
2019-02-16T16:34:35.904Z,14.28
2019-02-16T16:39:43.693Z,13.96
2019-02-16T16:44:54.594Z,13.68
2019-02-16T16:49:59.767Z,13.32
2019-02-16T16:55:07.495Z,12.94
2019-02-16T17:00:24.377Z,12.57
2019-02-16T17:05:29.537Z,12.28
2019-02-16T17:11:01.522Z,12.03
2019-02-16T17:16:06.573Z,11.69
2019-02-16T17:21:14.095Z,11.44
2019-02-16T17:26:37.879Z,11.17
2019-02-16T17:31:52.917Z,11.01
2019-02-16T17:37:00.959Z,10.76
2019-02-16T17:42:14.950Z,10.50
2019-02-16T17:47:32.090Z,10.28
2019-02-16T17:52:53.147Z,10.12
2019-02-16T17:58:01.011Z,9.93
2019-02-16T18:03:15.439Z,9.74
2019-02-16T18:08:20.514Z,9.59
2019-02-16T18:13:41.792Z,9.42
2019-02-16T18:18:52.814Z,9.21
2019-02-16T18:24:06.652Z,9.04
2019-02-16T18:29:23.920Z,8.87
2019-02-16T18:34:34.723Z,8.83
2019-02-16T18:39:55.793Z,8.75
2019-02-16T18:45:00.890Z,8.60
2019-02-16T18:50:06.372Z,8.46
2019-02-16T18:55:11.548Z,8.43
2019-02-16T19:00:25.335Z,8.28
2019-02-16T19:05:30.407Z,8.17
2019-02-16T19:10:53.398Z,8.05
2019-02-16T19:16:13.443Z,7.90
2019-02-16T19:21:18.511Z,7.88
2019-02-16T19:26:23.730Z,7.82
2019-02-16T19:31:40.449Z,7.84
2019-02-16T19:37:01.945Z,7.79
2019-02-16T19:42:22.103Z,7.70
2019-02-16T19:47:29.756Z,7.21
2019-02-16T19:52:43.919Z,7.07
2019-02-16T19:57:48.978Z,6.93
2019-02-16T20:02:59.998Z,6.90
2019-02-16T20:08:11.747Z,6.65
2019-02-16T20:13:16.808Z,6.56
2019-02-16T20:18:21.873Z,6.52
2019-02-16T20:23:42.202Z,6.55
2019-02-16T20:28:56.003Z,6.55
2019-02-16T20:34:06.871Z,6.34
2019-02-16T20:39:14.493Z,6.21
2019-02-16T20:44:22.560Z,6.08
2019-02-16T20:49:39.424Z,6.06
2019-02-16T21:00:09.710Z,6.07
2019-02-16T21:05:29.792Z,6.07
2019-02-16T21:10:43.757Z,5.79
2019-02-16T21:15:48.824Z,5.63
2019-02-16T21:21:10.310Z,5.60
2019-02-16T21:26:36.928Z,5.62
2019-02-16T21:31:54.467Z,5.58
2019-02-16T21:37:05.474Z,5.50
2019-02-16T21:42:19.793Z,5.56
2019-02-16T21:52:53.256Z,5.53
2019-02-16T21:58:08.330Z,5.56
2019-02-16T22:08:47.017Z,5.51
2019-02-16T22:13:50.444Z,5.37
2019-02-16T22:18:53.864Z,5.28
2019-02-16T22:23:57.277Z,5.20
2019-02-16T22:29:00.741Z,5.16
2019-02-16T22:34:04.238Z,5.06
2019-02-16T22:39:07.676Z,4.97
2019-02-16T22:44:11.109Z,4.98
2019-02-16T22:49:14.542Z,4.86
2019-02-16T22:54:17.975Z,4.83
2019-02-16T22:59:21.401Z,4.77
2019-02-16T23:04:24.903Z,4.68
2019-02-16T23:09:28.881Z,4.58
2019-02-16T23:14:32.321Z,4.44
2019-02-16T23:19:35.741Z,4.44
2019-02-16T23:24:39.171Z,4.46
2019-02-16T23:29:42.591Z,4.54
2019-02-16T23:34:46.029Z,4.46
2019-02-16T23:39:49.473Z,4.34
2019-02-16T23:44:52.897Z,4.37
2019-02-16T23:49:56.317Z,4.32
2019-02-16T23:54:59.738Z,4.45
